createdAt,value
2018-10-19T00:02:15.753Z,8.30
2018-10-19T00:04:43.936Z,8.30
2018-10-19T00:07:12.249Z,8.30
2018-10-19T00:09:40.634Z,8.20
2018-10-19T00:12:09.310Z,8.20
2018-10-19T00:14:37.766Z,8.20
2018-10-19T00:17:06.413Z,8.40
2018-10-19T00:19:34.774Z,8.40
2018-10-19T00:22:02.865Z,8.30
2018-10-19T00:24:31.375Z,8.30
2018-10-19T00:26:59.982Z,8.30
2018-10-19T00:29:28.182Z,8.20
2018-10-19T00:31:56.430Z,8.10
2018-10-19T00:34:24.924Z,8.10
2018-10-19T00:36:53.494Z,8.00
2018-10-19T00:39:21.738Z,7.90
2018-10-19T00:41:50.064Z,7.90
2018-10-19T00:44:18.519Z,8.00
2018-10-19T00:46:46.815Z,8.00
2018-10-19T00:49:15.231Z,7.90
2018-10-19T00:51:43.691Z,7.90
2018-10-19T00:54:12.278Z,7.90
2018-10-19T00:56:40.485Z,7.90
2018-10-19T00:59:08.602Z,7.90
2018-10-19T01:01:37.148Z,7.80
2018-10-19T01:04:06.089Z,7.80
2018-10-19T01:06:34.237Z,7.70
2018-10-19T01:09:02.891Z,7.60
2018-10-19T01:11:31.007Z,7.60
2018-10-19T01:13:59.236Z,7.60
2018-10-19T01:16:27.372Z,7.50
2018-10-19T01:18:55.550Z,7.50
2018-10-19T01:21:24.077Z,7.50
2018-10-19T01:23:52.472Z,7.50
2018-10-19T01:26:21.140Z,7.60
2018-10-19T01:28:49.499Z,7.70
2018-10-19T01:31:17.702Z,7.90
2018-10-19T01:33:46.163Z,7.80
2018-10-19T01:36:14.233Z,7.80
2018-10-19T01:38:42.297Z,7.80
2018-10-19T01:41:10.333Z,7.80
2018-10-19T01:43:38.381Z,7.70
2018-10-19T01:46:06.554Z,7.60
2018-10-19T01:48:34.715Z,7.60
2018-10-19T01:51:02.814Z,7.50
2018-10-19T01:53:31.062Z,7.40
2018-10-19T01:55:59.183Z,7.40
2018-10-19T01:58:27.327Z,7.40
2018-10-19T02:00:55.418Z,7.30
2018-10-19T02:03:23.512Z,7.30
2018-10-19T02:05:51.757Z,7.30
2018-10-19T02:08:20.111Z,7.40
2018-10-19T02:10:48.307Z,7.50
2018-10-19T02:13:16.898Z,7.50
2018-10-19T02:15:45.171Z,7.60
2018-10-19T02:18:13.507Z,7.50
2018-10-19T02:20:41.662Z,7.40
2018-10-19T02:23:09.818Z,7.30
2018-10-19T02:25:38.111Z,7.20
2018-10-19T02:28:06.371Z,7.20
2018-10-19T02:30:34.610Z,7.20
2018-10-19T02:33:02.816Z,7.20
2018-10-19T02:35:31.074Z,7.20
2018-10-19T02:37:59.220Z,7.10
2018-10-19T02:40:27.497Z,7.00
2018-10-19T02:42:55.544Z,6.90
2018-10-19T02:45:23.650Z,6.90
2018-10-19T02:47:51.841Z,6.80
2018-10-19T02:50:19.992Z,6.90
2018-10-19T02:52:48.068Z,7.00
2018-10-19T02:55:16.147Z,7.10
2018-10-19T02:57:44.517Z,7.00
2018-10-19T03:00:12.599Z,6.90
2018-10-19T03:02:41.115Z,6.90
2018-10-19T03:05:09.624Z,6.90
2018-10-19T03:07:37.811Z,6.90
2018-10-19T03:10:06.610Z,7.10
2018-10-19T03:12:34.753Z,7.10
2018-10-19T03:15:03.195Z,6.90
2018-10-19T03:17:31.889Z,6.90
2018-10-19T03:20:00.041Z,6.80
2018-10-19T03:22:28.266Z,6.80
2018-10-19T03:24:57.476Z,6.80
2018-10-19T03:27:25.564Z,6.70
2018-10-19T03:29:53.623Z,6.70
2018-10-19T03:32:21.890Z,6.70
2018-10-19T03:34:50.100Z,6.70
2018-10-19T03:37:18.585Z,6.70
2018-10-19T03:39:46.757Z,6.70
2018-10-19T03:42:14.912Z,6.70
2018-10-19T03:44:42.974Z,6.80
2018-10-19T03:47:11.221Z,6.80
2018-10-19T03:49:39.530Z,6.70
2018-10-19T03:52:07.742Z,6.80
2018-10-19T03:54:36.156Z,6.70
2018-10-19T03:57:04.996Z,6.60
2018-10-19T03:59:33.467Z,6.60
2018-10-19T04:02:02.617Z,6.50
2018-10-19T04:04:30.806Z,6.50
2018-10-19T04:06:59.006Z,6.50
2018-10-19T04:09:27.205Z,6.60
2018-10-19T04:11:55.641Z,6.70
2018-10-19T04:14:55.083Z,6.60
2018-10-19T04:17:23.278Z,6.50
2018-10-19T04:19:51.601Z,6.50
2018-10-19T04:22:20.370Z,6.40
2018-10-19T04:24:49.671Z,6.40
2018-10-19T04:27:18.380Z,6.30
2018-10-19T04:29:46.795Z,6.30
2018-10-19T04:32:15.107Z,6.30
2018-10-19T04:34:43.243Z,6.30
2018-10-19T04:37:11.448Z,6.30
2018-10-19T04:39:39.616Z,6.20
2018-10-19T04:42:08.028Z,6.30
2018-10-19T04:44:36.126Z,6.30
2018-10-19T04:47:04.896Z,6.30
2018-10-19T04:49:33.178Z,6.30
2018-10-19T04:52:01.577Z,6.30
2018-10-19T04:54:29.989Z,6.30
2018-10-19T04:56:58.485Z,6.30
2018-10-19T04:59:27.047Z,6.20
2018-10-19T05:01:55.661Z,6.10
2018-10-19T05:04:24.121Z,6.10
2018-10-19T05:06:52.529Z,6.00
2018-10-19T05:09:20.611Z,6.10
2018-10-19T05:11:48.790Z,6.20
2018-10-19T05:14:16.970Z,6.20
2018-10-19T05:16:45.306Z,6.20
2018-10-19T05:19:13.938Z,6.10
2018-10-19T05:21:42.315Z,6.10
2018-10-19T05:24:10.407Z,6.10
2018-10-19T05:26:38.607Z,6.10
2018-10-19T05:29:06.879Z,6.10
2018-10-19T05:31:35.365Z,6.10
2018-10-19T05:34:03.704Z,6.10
2018-10-19T05:36:31.980Z,6.10
2018-10-19T05:39:02.556Z,6.10
2018-10-19T05:41:30.807Z,6.10
2018-10-19T05:43:59.138Z,6.10
2018-10-19T05:46:27.592Z,6.10
2018-10-19T05:48:55.746Z,6.20
2018-10-19T05:51:24.046Z,6.30
2018-10-19T05:53:52.088Z,6.40
2018-10-19T05:56:20.421Z,6.50
2018-10-19T05:58:48.689Z,6.60
2018-10-19T06:01:17.032Z,6.70
2018-10-19T06:03:45.319Z,6.70
2018-10-19T06:06:13.470Z,6.70
2018-10-19T06:08:41.687Z,6.70
2018-10-19T06:11:10.152Z,6.70
2018-10-19T06:13:38.681Z,6.70
2018-10-19T06:16:06.890Z,6.80
2018-10-19T06:18:35.114Z,6.80
2018-10-19T06:21:03.451Z,6.90
2018-10-19T06:23:31.711Z,7.00
2018-10-19T06:25:59.948Z,7.00
2018-10-19T06:28:28.257Z,7.10
2018-10-19T06:30:56.531Z,7.20
2018-10-19T06:33:24.737Z,7.30
2018-10-19T06:35:53.564Z,7.40
2018-10-19T06:38:21.754Z,7.50
2018-10-19T06:40:50.068Z,7.60
2018-10-19T06:43:18.499Z,7.80
2018-10-19T06:45:46.756Z,7.90
2018-10-19T06:48:14.911Z,8.10
2018-10-19T06:50:43.139Z,8.40
2018-10-19T06:53:11.524Z,8.70
2018-10-19T06:55:39.848Z,9.00
2018-10-19T06:58:07.948Z,9.30
2018-10-19T07:00:36.360Z,9.60
2018-10-19T07:03:05.856Z,9.80
2018-10-19T07:05:34.012Z,10.10
2018-10-19T07:08:02.420Z,10.40
2018-10-19T07:10:30.685Z,10.40
2018-10-19T07:12:59.301Z,10.60
2018-10-19T07:15:28.614Z,11.00
2018-10-19T07:17:56.805Z,11.20
2018-10-19T07:20:24.991Z,11.50
2018-10-19T07:22:53.193Z,11.80
2018-10-19T07:25:21.406Z,12.10
2018-10-19T07:27:49.529Z,12.20
2018-10-19T07:30:17.635Z,12.40
2018-10-19T07:32:46.298Z,12.50
2018-10-19T07:35:14.630Z,12.80
2018-10-19T07:37:42.788Z,13.10
2018-10-19T07:40:11.217Z,13.40
2018-10-19T07:42:39.364Z,13.40
2018-10-19T07:45:07.681Z,13.40
2018-10-19T07:47:36.139Z,13.70
2018-10-19T07:50:05.970Z,14.10
2018-10-19T07:52:34.160Z,14.70
2018-10-19T07:55:02.481Z,15.00
2018-10-19T07:57:40.809Z,15.60
2018-10-19T08:00:09.940Z,16.00
2018-10-19T08:02:38.105Z,16.30
2018-10-19T08:05:07.765Z,16.40
2018-10-19T08:07:36.071Z,16.70
2018-10-19T08:10:06.019Z,17.00
2018-10-19T08:12:34.281Z,17.40
2018-10-19T08:15:02.736Z,17.80
2018-10-19T08:17:31.122Z,18.00
2018-10-19T08:19:59.405Z,18.50
2018-10-19T08:22:27.742Z,19.20
2018-10-19T08:24:56.339Z,19.30
2018-10-19T08:27:24.589Z,19.70
2018-10-19T08:29:52.890Z,19.50
2018-10-19T08:32:21.048Z,19.80
2018-10-19T08:34:49.362Z,20.00
2018-10-19T08:37:17.640Z,20.10
2018-10-19T08:39:46.363Z,20.20
2018-10-19T08:42:14.533Z,20.80
2018-10-19T08:44:42.956Z,20.80
2018-10-19T08:47:11.206Z,20.40
2018-10-19T08:49:39.488Z,20.60
2018-10-19T08:52:07.952Z,20.50
2018-10-19T08:54:36.389Z,20.40
2018-10-19T08:57:05.240Z,20.50
2018-10-19T08:59:33.984Z,20.20
2018-10-19T09:02:02.223Z,20.80
2018-10-19T09:04:30.509Z,21.30
2018-10-19T09:06:58.981Z,21.50
2018-10-19T09:09:27.071Z,21.70
2018-10-19T09:11:55.297Z,21.80
2018-10-19T09:14:40.681Z,22.00
2018-10-19T09:17:09.247Z,22.00
2018-10-19T09:19:37.369Z,21.00
2018-10-19T09:22:09.467Z,21.90
2018-10-19T09:24:37.562Z,22.50
2018-10-19T09:27:09.706Z,23.00
2018-10-19T09:29:37.952Z,23.30
2018-10-19T09:32:06.570Z,22.70
2018-10-19T09:34:35.891Z,22.60
2018-10-19T09:37:05.186Z,22.80
2018-10-19T09:39:33.777Z,23.50
2018-10-19T09:42:01.956Z,23.90
2018-10-19T09:44:31.247Z,22.70
2018-10-19T09:46:59.437Z,22.70
2018-10-19T09:49:27.685Z,23.10
2018-10-19T09:51:55.932Z,23.60
2018-10-19T09:54:24.528Z,24.00
2018-10-19T09:56:52.887Z,23.90
2018-10-19T09:59:24.702Z,23.90
2018-10-19T10:01:53.278Z,23.50
2018-10-19T10:04:21.546Z,23.80
2018-10-19T10:06:50.010Z,23.50
2018-10-19T10:09:18.382Z,23.70
2018-10-19T10:11:46.713Z,23.30
2018-10-19T10:14:15.942Z,23.50
2018-10-19T10:16:44.290Z,23.10
2018-10-19T10:19:12.570Z,23.50
2018-10-19T10:21:40.742Z,23.60
2018-10-19T10:24:08.922Z,22.80
2018-10-19T10:26:37.056Z,23.30
2018-10-19T10:29:05.930Z,23.50
2018-10-19T10:31:34.384Z,24.30
2018-10-19T10:34:02.593Z,23.30
2018-10-19T10:36:31.067Z,22.90
2018-10-19T10:38:59.280Z,22.80
2018-10-19T10:41:27.548Z,22.70
2018-10-19T10:43:55.797Z,23.00
2018-10-19T10:46:24.084Z,23.30
2018-10-19T10:48:52.371Z,23.30
2018-10-19T10:51:20.695Z,23.20
2018-10-19T10:53:48.844Z,23.00
2018-10-19T10:56:17.152Z,22.70
2018-10-19T10:58:45.381Z,22.30
2018-10-19T11:01:14.126Z,21.30
2018-10-19T11:03:42.227Z,20.30
2018-10-19T11:06:10.383Z,19.70
2018-10-19T11:08:38.906Z,19.30
2018-10-19T11:11:09.948Z,19.10
2018-10-19T11:13:39.038Z,19.00
2018-10-19T11:16:08.223Z,19.00
2018-10-19T11:18:36.409Z,18.60
2018-10-19T11:21:05.038Z,18.80
2018-10-19T11:23:33.704Z,18.80
2018-10-19T11:26:02.028Z,18.60
2018-10-19T11:28:31.030Z,18.50
2018-10-19T11:30:59.796Z,18.40
2018-10-19T11:33:28.354Z,18.40
2018-10-19T11:35:56.707Z,18.60
2018-10-19T11:38:25.130Z,18.70
2018-10-19T11:40:53.490Z,18.70
2018-10-19T11:43:22.175Z,18.70
2018-10-19T11:45:50.432Z,18.80
2018-10-19T11:48:18.774Z,18.70
2018-10-19T11:50:47.155Z,18.60
2018-10-19T11:53:15.476Z,18.60
2018-10-19T11:55:43.872Z,18.80
2018-10-19T11:58:12.193Z,19.00
2018-10-19T12:00:40.611Z,19.00
2018-10-19T12:03:09.136Z,18.90
2018-10-19T12:05:37.530Z,18.90
2018-10-19T12:08:05.978Z,18.80
2018-10-19T12:10:34.418Z,18.80
2018-10-19T12:13:02.551Z,18.70
2018-10-19T12:15:31.521Z,18.60
2018-10-19T12:17:59.617Z,18.60
2018-10-19T12:20:28.041Z,18.80
2018-10-19T12:22:56.479Z,19.00
2018-10-19T12:25:25.141Z,19.10
2018-10-19T12:27:53.913Z,18.90
2018-10-19T12:30:22.269Z,18.90
2018-10-19T12:32:50.512Z,19.00
2018-10-19T12:35:18.867Z,19.00
2018-10-19T12:37:47.078Z,19.00
2018-10-19T12:40:16.018Z,18.90
2018-10-19T12:42:45.181Z,18.70
2018-10-19T12:46:35.479Z,18.70
2018-10-19T12:49:03.997Z,18.90
2018-10-19T12:51:32.302Z,18.80
2018-10-19T12:54:00.468Z,18.80
2018-10-19T12:56:28.709Z,18.90
2018-10-19T12:58:57.036Z,19.00
2018-10-19T13:01:26.627Z,19.00
2018-10-19T13:03:55.028Z,19.00
2018-10-19T13:06:23.389Z,18.90
2018-10-19T13:08:52.029Z,19.00
2018-10-19T13:11:20.510Z,19.10
2018-10-19T13:13:49.150Z,19.20
2018-10-19T13:16:17.855Z,19.20
2018-10-19T13:18:46.108Z,19.20
2018-10-19T13:21:14.592Z,19.20
2018-10-19T13:23:42.835Z,19.00
2018-10-19T13:26:11.988Z,18.90
2018-10-19T13:28:40.141Z,18.90
2018-10-19T13:31:08.446Z,18.80
2018-10-19T13:33:36.933Z,18.70
2018-10-19T13:36:06.007Z,18.50
2018-10-19T13:38:34.241Z,18.50
2018-10-19T13:41:02.418Z,18.50
2018-10-19T13:43:30.762Z,18.50
2018-10-19T13:45:58.976Z,18.50
2018-10-19T13:48:27.348Z,18.40
2018-10-19T13:50:55.623Z,18.40
2018-10-19T13:53:23.974Z,18.30
2018-10-19T13:55:52.493Z,18.30
2018-10-19T13:58:20.904Z,18.40
2018-10-19T14:00:49.111Z,18.40
2018-10-19T14:03:17.979Z,18.40
2018-10-19T14:05:46.862Z,18.50
2018-10-19T14:08:15.339Z,18.50
2018-10-19T14:10:43.726Z,18.50
2018-10-19T14:13:12.025Z,18.50
2018-10-19T14:15:40.224Z,18.50
2018-10-19T14:18:08.606Z,18.60
2018-10-19T14:20:36.834Z,18.60
2018-10-19T14:23:06.176Z,18.60
2018-10-19T14:25:34.360Z,18.60
2018-10-19T14:28:02.615Z,18.60
2018-10-19T14:30:31.387Z,18.70
2018-10-19T14:32:59.584Z,18.80
2018-10-19T14:35:27.610Z,18.90
2018-10-19T14:37:56.082Z,18.90
2018-10-19T14:40:24.246Z,18.70
2018-10-19T14:42:53.101Z,18.70
2018-10-19T14:45:21.300Z,18.70
2018-10-19T14:47:49.542Z,18.80
2018-10-19T14:50:18.328Z,18.80
2018-10-19T14:52:46.499Z,18.70
2018-10-19T14:55:16.228Z,18.70
2018-10-19T14:57:44.409Z,18.70
2018-10-19T15:00:13.964Z,18.70
2018-10-19T15:02:42.333Z,18.70
2018-10-19T15:05:12.333Z,18.60
2018-10-19T15:07:40.400Z,18.60
2018-10-19T15:10:12.776Z,18.60
2018-10-19T15:12:41.123Z,18.50
2018-10-19T15:15:12.453Z,18.50
2018-10-19T15:17:40.614Z,18.40
2018-10-19T15:20:09.115Z,18.40
2018-10-19T15:22:37.487Z,18.30
2018-10-19T15:25:07.096Z,18.30
2018-10-19T15:27:35.984Z,18.20
2018-10-19T15:30:05.168Z,18.10
2018-10-19T15:32:33.557Z,18.00
2018-10-19T15:35:01.716Z,17.90
2018-10-19T15:37:29.744Z,17.50
2018-10-19T15:39:58.094Z,17.80
2018-10-19T15:42:26.149Z,17.70
2018-10-19T15:44:54.562Z,17.50
2018-10-19T15:47:26.340Z,17.40
2018-10-19T15:49:56.131Z,17.30
2018-10-19T15:52:24.370Z,17.10
2018-10-19T15:54:53.600Z,17.00
2018-10-19T15:57:22.049Z,17.00
2018-10-19T15:59:50.296Z,16.80
2018-10-19T16:02:18.871Z,16.70
2018-10-19T16:04:48.181Z,16.50
2018-10-19T16:07:16.711Z,16.30
2018-10-19T16:09:45.199Z,16.20
2018-10-19T16:12:13.354Z,16.10
2018-10-19T16:14:41.450Z,15.90
2018-10-19T16:17:09.673Z,15.80
2018-10-19T16:19:37.819Z,15.60
2018-10-19T16:22:06.372Z,15.40
2018-10-19T16:24:34.499Z,15.40
2018-10-19T16:27:02.757Z,15.30
2018-10-19T16:29:30.835Z,15.20
2018-10-19T16:31:58.847Z,15.10
2018-10-19T16:34:27.230Z,15.00
2018-10-19T16:36:55.486Z,15.00
2018-10-19T16:39:23.602Z,14.90
2018-10-19T16:41:51.753Z,14.80
2018-10-19T16:44:20.042Z,14.60
2018-10-19T16:46:49.330Z,14.40
2018-10-19T16:49:17.401Z,14.40
2018-10-19T16:51:45.620Z,14.30
2018-10-19T16:54:13.700Z,14.30
2018-10-19T16:56:41.701Z,14.20
2018-10-19T16:59:09.969Z,14.00
2018-10-19T17:01:38.468Z,13.80
2018-10-19T17:04:06.924Z,13.60
2018-10-19T17:06:35.176Z,13.50
2018-10-19T17:09:07.429Z,13.30
2018-10-19T17:11:35.455Z,13.20
2018-10-19T17:14:03.922Z,13.20
2018-10-19T17:16:32.070Z,13.00
2018-10-19T17:19:00.182Z,12.90
2018-10-19T17:21:28.642Z,12.80
2018-10-19T17:23:57.461Z,12.80
2018-10-19T17:26:25.531Z,12.70
2018-10-19T17:28:53.930Z,12.60
2018-10-19T17:31:22.243Z,12.50
2018-10-19T17:33:50.548Z,12.40
2018-10-19T17:36:18.599Z,12.30
2018-10-19T17:38:46.974Z,12.30
2018-10-19T17:41:15.259Z,12.20
2018-10-19T17:43:43.600Z,12.20
2018-10-19T17:46:11.692Z,12.10
2018-10-19T17:48:40.050Z,12.00
2018-10-19T17:51:08.335Z,12.00
2018-10-19T17:53:36.494Z,12.00
2018-10-19T17:56:05.211Z,11.90
2018-10-19T17:58:33.695Z,11.80
2018-10-19T18:01:01.871Z,11.80
2018-10-19T18:03:30.649Z,11.70
2018-10-19T18:05:59.006Z,11.60
2018-10-19T18:08:27.211Z,11.60
2018-10-19T18:10:55.562Z,11.50
2018-10-19T18:13:24.476Z,11.50
2018-10-19T18:15:52.738Z,11.50
2018-10-19T18:18:20.999Z,11.40
2018-10-19T18:20:49.216Z,11.40
2018-10-19T18:23:17.805Z,11.30
2018-10-19T18:25:46.456Z,11.30
2018-10-19T18:28:14.604Z,11.30
2018-10-19T18:30:42.932Z,11.20
2018-10-19T18:33:10.990Z,11.10
2018-10-19T18:35:39.366Z,11.00
2018-10-19T18:38:07.475Z,11.00
2018-10-19T18:40:35.572Z,10.90
2018-10-19T18:43:04.119Z,10.80
2018-10-19T18:45:32.335Z,10.70
2018-10-19T18:48:00.993Z,10.70
2018-10-19T18:50:29.318Z,10.60
2018-10-19T18:52:57.477Z,10.50
2018-10-19T18:55:25.785Z,10.50
2018-10-19T18:57:54.444Z,10.50
2018-10-19T19:00:22.579Z,10.50
2018-10-19T19:02:50.751Z,10.50
2018-10-19T19:05:18.875Z,10.60
2018-10-19T19:07:47.202Z,10.50
2018-10-19T19:10:15.355Z,10.40
2018-10-19T19:12:43.403Z,10.40
2018-10-19T19:15:11.854Z,10.40
2018-10-19T19:17:40.135Z,10.30
2018-10-19T19:20:14.512Z,10.20
2018-10-19T19:22:43.262Z,10.10
2018-10-19T19:25:17.060Z,10.10
2018-10-19T19:27:45.276Z,10.00
2018-10-19T19:30:13.549Z,10.00
2018-10-19T19:32:47.333Z,10.50
2018-10-19T19:35:15.691Z,10.00
2018-10-19T19:37:44.497Z,10.00
2018-10-19T19:40:13.533Z,10.10
2018-10-19T19:42:46.385Z,10.10
2018-10-19T19:45:15.139Z,10.00
2018-10-19T19:47:49.072Z,10.00
2018-10-19T19:50:17.320Z,10.00
2018-10-19T19:52:45.454Z,9.90
2018-10-19T19:55:13.772Z,9.80
2018-10-19T19:57:42.014Z,9.80
2018-10-19T20:00:10.501Z,9.70
2018-10-19T20:02:39.092Z,9.60
2018-10-19T20:05:07.789Z,9.60
2018-10-19T20:07:36.933Z,9.50
2018-10-19T20:10:06.723Z,9.40
2018-10-19T20:12:35.377Z,9.40
2018-10-19T20:15:05.006Z,9.30
2018-10-19T20:17:33.275Z,9.30
2018-10-19T20:20:01.824Z,9.30
2018-10-19T20:22:30.225Z,9.30
2018-10-19T20:24:58.477Z,9.30
2018-10-19T20:27:26.775Z,9.30
2018-10-19T20:29:55.432Z,9.30
2018-10-19T20:32:23.971Z,9.20
2018-10-19T20:34:52.256Z,9.20
2018-10-19T20:37:21.012Z,9.20
2018-10-19T20:39:49.415Z,9.20
2018-10-19T20:42:17.719Z,9.10
2018-10-19T20:44:45.901Z,9.10
2018-10-19T20:47:14.372Z,9.00
2018-10-19T20:49:43.004Z,9.00
2018-10-19T20:52:11.478Z,8.90
2018-10-19T20:54:40.553Z,8.90
2018-10-19T20:57:08.565Z,8.90
2018-10-19T20:59:36.955Z,8.90
2018-10-19T21:02:05.430Z,8.90
2018-10-19T21:04:33.928Z,8.90
2018-10-19T21:07:03.338Z,8.80
2018-10-19T21:09:31.550Z,8.80
2018-10-19T21:12:00.976Z,8.80
2018-10-19T21:14:29.280Z,8.80
2018-10-19T21:16:57.512Z,8.80
2018-10-19T21:19:26.591Z,8.70
2018-10-19T21:21:55.592Z,8.70
2018-10-19T21:24:24.287Z,8.70
2018-10-19T21:26:52.809Z,8.70
2018-10-19T21:29:21.000Z,8.60
2018-10-19T21:31:49.803Z,8.50
2018-10-19T21:34:17.936Z,8.50
2018-10-19T21:36:46.095Z,8.40
2018-10-19T21:39:14.268Z,8.40
2018-10-19T21:41:42.636Z,8.40
2018-10-19T21:44:10.983Z,8.40
2018-10-19T21:46:39.375Z,8.40
2018-10-19T21:49:08.060Z,8.30
2018-10-19T21:51:36.406Z,8.30
2018-10-19T21:54:05.226Z,8.30
2018-10-19T21:56:33.537Z,8.30
2018-10-19T21:59:02.125Z,8.20
2018-10-19T22:01:30.389Z,8.20
2018-10-19T22:03:58.496Z,8.20
2018-10-19T22:06:26.970Z,8.10
2018-10-19T22:08:55.191Z,8.10
2018-10-19T22:11:23.501Z,8.10
2018-10-19T22:13:51.706Z,8.10
2018-10-19T22:16:19.825Z,8.10
2018-10-19T22:18:47.926Z,8.10
2018-10-19T22:21:16.253Z,8.10
2018-10-19T22:23:44.450Z,8.00
2018-10-19T22:26:12.809Z,8.00
2018-10-19T22:28:40.896Z,7.90
2018-10-19T22:31:09.204Z,7.90
2018-10-19T22:33:37.493Z,7.90
2018-10-19T22:36:05.951Z,7.90
2018-10-19T22:38:35.458Z,7.90
2018-10-19T22:41:04.567Z,7.90
2018-10-19T22:43:32.700Z,7.80
2018-10-19T22:46:00.804Z,7.90
2018-10-19T22:48:29.408Z,7.90
2018-10-19T22:50:57.605Z,7.80
2018-10-19T22:53:25.719Z,7.70
2018-10-19T22:55:53.791Z,7.60
2018-10-19T22:58:21.792Z,7.50
2018-10-19T23:00:49.971Z,7.40
2018-10-19T23:03:18.009Z,7.50
2018-10-19T23:05:46.080Z,7.50
2018-10-19T23:08:14.240Z,8.00
2018-10-19T23:10:42.572Z,7.60
2018-10-19T23:13:10.751Z,7.60
2018-10-19T23:15:39.278Z,7.60
2018-10-19T23:18:07.698Z,7.50
2018-10-19T23:20:35.733Z,7.50
2018-10-19T23:23:04.223Z,7.40
2018-10-19T23:25:32.247Z,7.40
2018-10-19T23:28:00.349Z,7.40
2018-10-19T23:30:28.436Z,7.30
2018-10-19T23:32:56.627Z,7.20
2018-10-19T23:35:24.651Z,7.10
2018-10-19T23:37:52.701Z,7.30
2018-10-19T23:40:20.738Z,7.30
2018-10-19T23:42:49.034Z,7.40
2018-10-19T23:45:17.186Z,7.50
2018-10-19T23:47:45.343Z,7.40
2018-10-19T23:50:13.715Z,7.30
2018-10-19T23:52:42.174Z,7.20
2018-10-19T23:55:10.464Z,7.10
2018-10-19T23:57:38.653Z,7.20
